Terminal Aerodrome Forecast
Issued by NWS

Home | Current Version | Previous Version | Graphics & Text | Print | Product List | Glossary On
Versions: 1 2 3 4 5 6 7 8 9 10 11 12 13
000
FTUS43 KOAX 271133
TAFCDR
TAF
KCDR 271133Z 2712/2812 21010KT P6SM SKC
     FM271700 18018G25KT P6SM SCT150
     FM272200 20018G25KT P6SM VCTS BKN100CB
     FM280200 21012KT P6SM BKN200
     FM280600 30016G23KT P6SM SKC=

USA.gov is the U.S. government's official web portal to all federal, state and local government web resources and services.